createdAt,value
2022-10-29T00:01:05.688Z,25.33
2022-10-29T00:03:33.174Z,25.05
2022-10-29T00:06:08.085Z,24.83
2022-10-29T00:08:38.000Z,25.38
2022-10-29T00:11:12.011Z,25.33
2022-10-29T00:13:39.973Z,22.58
2022-10-29T00:16:18.876Z,27.23
2022-10-29T00:18:47.689Z,24.05
2022-10-29T00:21:21.032Z,26.58
2022-10-29T00:23:49.854Z,23.87
2022-10-29T00:26:19.653Z,22.25
2022-10-29T00:28:47.659Z,25.88
2022-10-29T00:31:24.414Z,24.00
2022-10-29T00:33:54.242Z,25.80
2022-10-29T00:36:26.459Z,25.33
2022-10-29T00:38:53.908Z,22.65
2022-10-29T00:41:26.695Z,24.58
2022-10-29T00:44:20.619Z,25.17
2022-10-29T00:47:04.837Z,22.93
2022-10-29T00:49:34.622Z,26.63
2022-10-29T00:52:05.800Z,25.20
2022-10-29T00:54:38.920Z,25.88
2022-10-29T00:57:20.436Z,24.58
2022-10-29T01:02:17.877Z,24.02
2022-10-29T01:04:47.173Z,27.13
2022-10-29T01:07:14.909Z,23.63
2022-10-29T01:09:42.990Z,24.70
2022-10-29T01:12:13.279Z,24.95
2022-10-29T01:14:52.741Z,25.90
2022-10-29T01:18:21.013Z,22.50
2022-10-29T01:20:51.216Z,23.05
2022-10-29T01:23:32.959Z,22.55
2022-10-29T01:26:21.973Z,24.58
2022-10-29T01:29:16.437Z,23.80
2022-10-29T01:32:11.561Z,26.48
2022-10-29T01:35:19.779Z,25.80
2022-10-29T01:38:12.221Z,24.15
2022-10-29T01:41:16.452Z,22.65
2022-10-29T01:43:55.502Z,23.10
2022-10-29T01:46:37.233Z,23.73
2022-10-29T01:49:13.340Z,23.15
2022-10-29T01:51:42.550Z,26.80
2022-10-29T01:54:12.357Z,23.85
2022-10-29T01:56:39.793Z,25.73
2022-10-29T01:59:18.488Z,28.55
2022-10-29T02:02:38.349Z,28.23
2022-10-29T02:05:34.024Z,28.02
2022-10-29T02:08:43.392Z,26.33
2022-10-29T02:11:16.881Z,23.65
2022-10-29T02:13:59.521Z,23.73
2022-10-29T02:16:28.371Z,26.20
2022-10-29T02:18:57.316Z,24.40
2022-10-29T02:21:25.239Z,26.95
2022-10-29T02:23:53.435Z,23.98
2022-10-29T02:26:21.930Z,24.20
2022-10-29T02:28:49.389Z,24.85
2022-10-29T02:31:16.834Z,25.75
2022-10-29T02:33:44.253Z,25.13
2022-10-29T02:36:11.733Z,24.25
2022-10-29T02:38:39.210Z,25.40
2022-10-29T02:41:06.675Z,24.15
2022-10-29T02:43:34.152Z,23.60
2022-10-29T02:46:24.420Z,24.83
2022-10-29T02:48:51.935Z,23.27
2022-10-29T02:51:19.650Z,24.85
2022-10-29T02:53:47.096Z,23.95
2022-10-29T02:56:14.561Z,23.33
2022-10-29T02:58:42.259Z,24.60
2022-10-29T03:01:10.166Z,24.30
2022-10-29T03:03:37.730Z,33.00
2022-10-29T03:06:05.599Z,35.92
2022-10-29T03:08:32.979Z,37.05
2022-10-29T03:11:00.468Z,27.00
2022-10-29T03:13:28.012Z,150.90
2022-10-29T03:15:55.477Z,167.10
2022-10-29T03:18:25.479Z,101.38
2022-10-29T03:20:53.066Z,29.73
2022-10-29T03:23:20.554Z,42.97
2022-10-29T03:25:55.818Z,125.00
2022-10-29T03:28:26.112Z,174.38
2022-10-29T03:30:53.559Z,44.42
2022-10-29T03:33:21.053Z,34.05
2022-10-29T03:35:48.575Z,226.25
2022-10-29T03:38:18.295Z,112.18
2022-10-29T03:40:45.808Z,140.52
2022-10-29T03:43:13.260Z,50.80
2022-10-29T03:45:40.815Z,61.53
2022-10-29T03:48:08.289Z,39.33
2022-10-29T03:50:35.786Z,28.92
2022-10-29T03:53:03.403Z,27.85
2022-10-29T03:55:31.340Z,28.67
2022-10-29T03:57:59.222Z,25.73
2022-10-29T04:00:26.735Z,27.00
2022-10-29T04:02:54.575Z,26.77
2022-10-29T04:05:22.347Z,25.38
2022-10-29T04:07:49.781Z,24.25
2022-10-29T04:10:17.290Z,24.42
2022-10-29T04:12:48.260Z,25.27
2022-10-29T04:15:16.013Z,28.83
2022-10-29T04:17:43.575Z,26.90
2022-10-29T04:20:21.158Z,29.30
2022-10-29T04:27:07.715Z,25.77
2022-10-29T04:28:50.360Z,24.38
2022-10-29T04:31:19.249Z,26.00
2022-10-29T04:33:46.665Z,27.23
2022-10-29T04:36:14.700Z,29.23
2022-10-29T04:38:42.058Z,23.83
2022-10-29T04:41:09.650Z,27.38
2022-10-29T04:43:37.826Z,27.75
2022-10-29T04:46:05.460Z,30.05
2022-10-29T04:48:33.121Z,25.27
2022-10-29T04:51:00.806Z,27.25
2022-10-29T04:53:28.554Z,27.33
2022-10-29T04:56:05.943Z,26.65
2022-10-29T04:58:33.386Z,24.80
2022-10-29T05:01:05.609Z,25.70
2022-10-29T05:03:34.502Z,26.15
2022-10-29T05:06:06.735Z,24.73
2022-10-29T05:08:34.768Z,24.52
2022-10-29T05:11:21.758Z,23.98
2022-10-29T05:13:49.275Z,23.50
2022-10-29T05:16:16.695Z,23.48
2022-10-29T05:18:44.297Z,23.67
2022-10-29T05:21:11.747Z,24.30
2022-10-29T05:23:39.160Z,22.98
2022-10-29T05:26:12.097Z,22.83
2022-10-29T05:28:39.714Z,24.58
2022-10-29T05:31:07.645Z,47.67
2022-10-29T05:33:35.082Z,28.90
2022-10-29T05:36:02.572Z,23.90
2022-10-29T05:38:30.115Z,21.83
2022-10-29T06:27:31.920Z,21.48
2022-10-29T06:30:00.003Z,20.77
2022-10-29T06:32:34.310Z,21.55
2022-10-29T06:37:53.968Z,23.10
2022-10-29T06:58:10.152Z,23.83
2022-10-29T07:00:44.694Z,19.70
2022-10-29T07:03:19.182Z,20.70
2022-10-29T07:05:47.821Z,20.90
2022-10-29T07:08:20.104Z,22.58
2022-10-29T07:10:55.939Z,22.70
2022-10-29T07:16:04.168Z,23.00
2022-10-29T07:21:22.758Z,19.70
2022-10-29T07:24:04.458Z,20.20
2022-10-29T07:26:43.491Z,18.80
2022-10-29T07:29:14.431Z,17.48
2022-10-29T07:32:04.411Z,18.15
2022-10-29T07:34:36.604Z,17.45
2022-10-29T07:37:08.625Z,17.48
2022-10-29T07:39:43.536Z,16.90
2022-10-29T07:51:14.369Z,16.00
2022-10-29T07:53:58.298Z,14.25
2022-10-29T07:56:29.712Z,13.07
2022-10-29T07:58:58.416Z,15.48
2022-10-29T08:01:27.011Z,13.82
2022-10-29T08:03:54.562Z,13.88
2022-10-29T08:06:26.602Z,13.35
2022-10-29T08:09:00.722Z,13.43
2022-10-29T08:11:31.954Z,11.45
2022-10-29T08:14:02.817Z,12.93
2022-10-29T08:16:31.988Z,11.90
2022-10-29T08:19:00.198Z,12.05
2022-10-29T08:21:28.095Z,11.73
2022-10-29T08:24:00.838Z,13.00
2022-10-29T08:26:28.549Z,10.65
2022-10-29T08:28:56.248Z,9.85
2022-10-29T08:31:24.214Z,12.55
2022-10-29T08:33:51.787Z,10.43
2022-10-29T08:36:19.670Z,11.07
2022-10-29T08:38:54.297Z,10.48
2022-10-29T08:41:25.898Z,10.38
2022-10-29T09:12:22.442Z,9.68
2022-10-29T09:15:14.322Z,9.15
2022-10-29T09:18:10.061Z,9.85
2022-10-29T09:21:12.268Z,9.13
2022-10-29T09:24:08.950Z,9.18
2022-10-29T09:27:02.520Z,10.25
2022-10-29T09:30:05.161Z,11.88
2022-10-29T09:33:07.493Z,9.73
2022-10-29T09:35:41.244Z,8.70
2022-10-29T09:38:35.444Z,9.90
2022-10-29T09:41:04.711Z,7.97
2022-10-29T09:43:40.017Z,7.72
2022-10-29T09:47:09.911Z,9.57
2022-10-29T09:50:09.138Z,10.10
2022-10-29T09:52:41.049Z,9.40
2022-10-29T09:55:20.750Z,9.48
2022-10-29T09:57:49.842Z,8.75
2022-10-29T10:00:36.841Z,10.27
2022-10-29T10:03:14.486Z,9.27
2022-10-29T10:06:10.832Z,9.90
2022-10-29T10:11:24.714Z,9.75
2022-10-29T10:13:58.122Z,10.05
2022-10-29T10:16:32.470Z,8.25
2022-10-29T10:19:00.222Z,7.78
2022-10-29T10:21:33.763Z,10.20
2022-10-29T10:24:01.418Z,9.23
2022-10-29T10:26:44.636Z,9.48
2022-10-29T10:29:27.599Z,9.00
2022-10-29T10:31:57.993Z,8.32
2022-10-29T10:34:36.321Z,7.80
2022-10-29T10:37:20.258Z,8.82
2022-10-29T10:40:24.908Z,8.13
2022-10-29T10:42:55.681Z,7.97
2022-10-29T10:45:39.512Z,7.70
2022-10-29T10:48:13.450Z,7.05
2022-10-29T10:50:41.730Z,7.25
2022-10-29T10:53:26.300Z,8.05
2022-10-29T10:56:00.721Z,10.45
2022-10-29T10:58:44.460Z,9.23
2022-10-29T11:01:23.628Z,8.70
2022-10-29T11:04:10.871Z,7.55
2022-10-29T11:06:47.024Z,8.50
2022-10-29T13:30:47.651Z,14.73
2022-10-29T13:33:29.301Z,10.35
2022-10-29T13:36:16.759Z,11.68
2022-10-29T13:39:06.436Z,11.93
2022-10-29T13:41:54.899Z,10.10
2022-10-29T13:44:26.540Z,9.57
2022-10-29T13:47:04.674Z,11.52
2022-10-29T13:49:41.624Z,10.75
2022-10-29T13:52:24.711Z,13.07
2022-10-29T13:55:09.824Z,11.48
2022-10-29T13:58:07.598Z,11.30
2022-10-29T14:00:38.390Z,10.40
2022-10-29T14:03:21.296Z,9.07
2022-10-29T14:05:53.682Z,9.77
2022-10-29T14:08:47.504Z,9.23
2022-10-29T14:11:30.234Z,9.82
2022-10-29T14:14:02.433Z,12.85
2022-10-29T14:16:32.999Z,10.50
2022-10-29T14:19:16.333Z,11.93
2022-10-29T14:21:43.798Z,9.75
2022-10-29T14:24:15.833Z,11.20
2022-10-29T14:26:45.938Z,9.15
2022-10-29T14:29:22.888Z,10.38
2022-10-29T14:32:18.800Z,10.00
2022-10-29T14:34:50.643Z,11.95
2022-10-29T14:37:37.744Z,9.98
2022-10-29T14:40:22.036Z,10.13
2022-10-29T14:42:54.870Z,11.95
2022-10-29T14:45:28.706Z,10.45
2022-10-29T14:48:03.680Z,10.23
2022-10-29T14:50:32.150Z,8.77
2022-10-29T14:53:07.511Z,9.35
2022-10-29T14:55:42.254Z,8.98
2022-10-29T14:58:12.665Z,10.77
2022-10-29T15:00:58.717Z,10.73
2022-10-29T15:03:30.866Z,8.90
2022-10-29T15:06:19.689Z,11.05
2022-10-29T15:09:03.843Z,12.85
2022-10-29T15:11:48.314Z,10.25
2022-10-29T15:16:59.716Z,11.18
2022-10-29T15:19:27.826Z,18.70
2022-10-29T15:21:55.192Z,14.30
2022-10-29T15:24:25.056Z,18.15
2022-10-29T15:26:58.859Z,16.65
2022-10-29T15:29:42.920Z,13.85
2022-10-29T15:32:17.986Z,13.15
2022-10-29T15:34:55.029Z,11.52
2022-10-29T15:37:42.638Z,13.18
2022-10-29T15:40:19.623Z,13.25
2022-10-29T15:42:47.616Z,15.10
2022-10-29T15:45:28.490Z,12.68
2022-10-29T15:48:18.687Z,13.00
2022-10-29T16:09:03.713Z,29.90
2022-10-29T16:17:20.348Z,14.05
2022-10-29T16:23:41.445Z,17.90
2022-10-29T16:32:40.279Z,14.35
2022-10-29T16:35:33.981Z,18.58
2022-10-29T16:41:28.220Z,16.05
2022-10-29T16:57:31.902Z,24.35
2022-10-29T17:14:31.775Z,15.05
2022-10-29T17:24:06.812Z,16.15
2022-10-29T17:44:41.234Z,13.27
2022-10-29T17:59:22.217Z,17.38
2022-10-29T18:07:26.410Z,12.73
2022-10-29T18:09:55.356Z,14.05
2022-10-29T18:12:22.793Z,13.32
2022-10-29T18:14:50.783Z,12.60
2022-10-29T18:17:18.504Z,11.95
2022-10-29T18:19:48.199Z,16.98
2022-10-29T18:22:16.415Z,13.70
2022-10-29T18:24:53.788Z,12.77
2022-10-29T18:27:26.857Z,11.93
2022-10-29T18:29:54.507Z,13.23
2022-10-29T18:32:21.974Z,13.20
2022-10-29T18:34:53.069Z,19.42
2022-10-29T18:37:23.109Z,11.05
2022-10-29T18:39:52.378Z,13.93
2022-10-29T18:42:22.303Z,12.15
2022-10-29T18:44:50.039Z,11.02
2022-10-29T18:47:17.833Z,12.23
2022-10-29T18:49:48.364Z,15.27
2022-10-29T18:52:19.254Z,13.73
2022-10-29T18:54:51.187Z,15.38
2022-10-29T19:00:14.498Z,13.98
2022-10-29T19:02:52.394Z,14.23
2022-10-29T19:05:55.212Z,13.73
2022-10-29T19:08:26.988Z,14.70
2022-10-29T19:10:55.542Z,16.17
2022-10-29T19:13:23.856Z,15.38
2022-10-29T19:15:52.688Z,14.02
2022-10-29T19:18:20.712Z,13.93
2022-10-29T19:20:49.282Z,15.63
2022-10-29T19:23:17.654Z,13.85
2022-10-29T19:25:47.917Z,16.65
2022-10-29T19:28:16.001Z,14.85
2022-10-29T19:30:44.384Z,16.58
2022-10-29T19:33:16.127Z,16.65
2022-10-29T19:35:46.140Z,14.23
2022-10-29T19:38:15.232Z,15.07
2022-10-29T19:40:43.339Z,15.00
2022-10-29T19:43:16.644Z,13.73
2022-10-29T19:45:45.086Z,12.43
2022-10-29T19:48:12.826Z,15.15
2022-10-29T19:50:40.267Z,21.48
2022-10-29T19:53:08.127Z,13.30
2022-10-29T19:55:40.505Z,15.38
2022-10-29T19:58:08.890Z,13.75
2022-10-29T20:00:37.743Z,16.65
2022-10-29T20:03:05.859Z,14.95
2022-10-29T20:05:35.969Z,17.58
2022-10-29T20:08:19.322Z,12.75
2022-10-29T20:20:25.816Z,16.60
2022-10-29T20:25:36.764Z,14.88
2022-10-29T20:28:05.119Z,16.45
2022-10-29T20:30:32.594Z,17.08
2022-10-29T20:33:00.725Z,19.08
2022-10-29T20:35:28.410Z,28.23
2022-10-29T20:38:00.692Z,16.38
2022-10-29T20:40:38.887Z,17.52
2022-10-29T20:43:11.962Z,17.88
2022-10-29T20:45:39.643Z,24.52
2022-10-29T20:48:11.262Z,18.23
2022-10-29T20:50:40.717Z,16.77
2022-10-29T20:58:21.504Z,18.65
2022-10-29T21:00:52.695Z,18.63
2022-10-29T21:03:22.150Z,19.13
2022-10-29T21:05:53.396Z,16.83
2022-10-29T21:08:23.199Z,19.48
2022-10-29T21:10:50.787Z,18.92
2022-10-29T21:13:18.214Z,20.73
2022-10-29T21:15:45.954Z,18.70
2022-10-29T21:18:13.731Z,20.77
2022-10-29T21:20:42.946Z,19.13
2022-10-29T21:23:10.879Z,20.02
2022-10-29T21:25:38.473Z,21.08
2022-10-29T21:28:06.102Z,16.90
2022-10-29T21:30:33.648Z,20.23
2022-10-29T21:33:01.091Z,18.88
2022-10-29T21:35:28.573Z,17.92
2022-10-29T21:37:56.485Z,17.33
2022-10-29T21:40:24.058Z,18.25
2022-10-29T21:42:56.358Z,18.98
2022-10-29T21:45:25.590Z,17.20
2022-10-29T21:47:56.746Z,23.10
2022-10-29T21:50:24.389Z,17.20
2022-10-29T21:52:51.746Z,19.48
2022-10-29T21:55:19.232Z,16.40
2022-10-29T21:57:46.980Z,19.45
2022-10-29T22:00:24.738Z,39.05
2022-10-29T22:02:52.539Z,46.28
2022-10-29T22:05:20.638Z,30.52
2022-10-29T22:07:48.107Z,24.48
2022-10-29T22:10:15.616Z,35.35
2022-10-29T22:12:43.389Z,21.10
2022-10-29T22:15:11.029Z,20.88
2022-10-29T22:17:38.540Z,23.13
2022-10-29T22:20:07.016Z,18.60
2022-10-29T22:22:34.424Z,36.22
2022-10-29T22:25:02.033Z,24.80
2022-10-29T22:27:29.431Z,57.97
2022-10-29T22:29:56.855Z,19.55
2022-10-29T22:32:24.195Z,16.38
2022-10-29T22:34:52.008Z,19.35
2022-10-29T22:37:19.639Z,19.67
2022-10-29T22:39:47.574Z,18.70
2022-10-29T22:42:17.073Z,17.45
2022-10-29T22:44:46.742Z,23.25
2022-10-29T22:47:15.512Z,25.65
2022-10-29T22:49:43.597Z,23.52
2022-10-29T22:52:12.441Z,22.23
2022-10-29T22:54:40.801Z,23.00
2022-10-29T22:57:08.419Z,23.33
2022-10-29T22:59:35.935Z,23.92
2022-10-29T23:02:03.586Z,24.40
2022-10-29T23:04:31.456Z,23.25
2022-10-29T23:07:01.823Z,23.88
2022-10-29T23:09:29.631Z,20.38
2022-10-29T23:11:57.578Z,23.48
2022-10-29T23:14:25.184Z,21.42
2022-10-29T23:16:53.536Z,20.80
2022-10-29T23:19:20.970Z,26.13
2022-10-29T23:21:48.398Z,26.13
2022-10-29T23:24:16.105Z,27.48
2022-10-29T23:26:43.642Z,35.65
2022-10-29T23:29:11.185Z,24.90
2022-10-29T23:31:39.438Z,25.95
2022-10-29T23:34:07.501Z,26.02
2022-10-29T23:36:35.060Z,28.90
2022-10-29T23:39:02.465Z,22.70
2022-10-29T23:41:31.565Z,27.75
2022-10-29T23:43:59.716Z,37.28
2022-10-29T23:46:27.644Z,27.15
2022-10-29T23:48:55.677Z,27.80
2022-10-29T23:51:23.952Z,24.95
2022-10-29T23:53:54.857Z,22.98
2022-10-29T23:56:25.676Z,22.92
2022-10-29T23:58:53.141Z,21.45
